Time;durP1;ratioP1;P1;durP2;ratioP2;P2;SDS_P1;SDS_P2;PMS_P1;PMS_P2;Temp;Humidity;BMP_temperature;BMP_pressure;BME280_temperature;BME280_humidity;BME280_pressure;Samples;Min_cycle;Max_cycle;Signal;HPM_P1;HPM_P2
2022/02/26 00:00:17;;;;;;;;;;;;;;;;;;4439789;32;20163;-74
2022/02/26 00:02:42;;;;;;;29.67;6.43;;;;;;;;;;4439856;32;20027;-74
2022/02/26 00:05:07;;;;;;;;;;;;;;;;;;4439647;32;20033;-74
2022/02/26 00:07:32;;;;;;;29.17;7.07;;;;;;;;;;4437660;32;19964;-75
2022/02/26 00:09:58;;;;;;;;;;;;;;;;;;4437998;32;20026;-74
2022/02/26 00:12:23;;;;;;;34.80;8.13;;;;;;;;;;4438397;32;19936;-74
2022/02/26 00:14:48;;;;;;;;;;;;;;;;;;4438422;32;20029;-74
2022/02/26 00:17:13;;;;;;;23.80;6.35;;;;;;;;;;4437034;32;19976;-74
2022/02/26 00:19:38;;;;;;;;;;;;;;;;;;4437391;32;20025;-74
2022/02/26 00:22:04;;;;;;;28.70;7.00;;;;;;;;;;4437713;32;19947;-75
2022/02/26 00:24:29;;;;;;;;;;;;;;;;;;4438073;32;20048;-74
2022/02/26 00:26:54;;;;;;;37.63;7.70;;;;;;;;;;4423600;32;19937;-74
2022/02/26 00:29:19;;;;;;;;;;;;;;;;;;4437686;32;20021;-74
2022/02/26 00:31:44;;;;;;;30.98;7.37;;;;;;;;;;4437284;32;19970;-74
2022/02/26 00:34:09;;;;;;;;;;;;;;;;;;4437252;32;20299;-74
2022/02/26 00:36:34;;;;;;;29.55;7.55;;;;;;;;;;4437015;32;19979;-74
2022/02/26 00:38:59;;;;;;;;;;;;;;;;;;4422522;32;20402;-74
2022/02/26 00:41:27;;;;;;;36.92;8.85;;;;;;;;;;4438838;32;19948;-73
2022/02/26 00:43:53;;;;;;;43.15;10.02;;;;;;;;;;4437385;32;20557;-73
2022/02/26 00:46:18;;;;;;;;;;;;;;;;;;4439021;32;20070;-74
2022/02/26 00:51:27;;;;;;;22.90;6.68;;;;;;;;;;4437178;32;20166;-75
2022/02/26 00:53:52;;;;;;;;;;;;;;;;;;4438852;32;20089;-74
2022/02/26 00:56:17;;;;;;;24.50;6.87;;;;;;;;;;4437115;32;19937;-75
2022/02/26 00:58:42;;;;;;;;;;;;;;;;;;4436921;32;20025;-73
2022/02/26 01:01:08;;;;;;;34.85;7.72;;;;;;;;;;4437763;32;19948;-74
2022/02/26 01:03:33;;;;;;;;;;;;;;;;;;4424379;32;20401;-74
2022/02/26 01:05:58;;;;;;;35.30;6.87;;;;;;;;;;4436531;32;20027;-74
2022/02/26 01:08:23;;;;;;;;;;;;;;;;;;4438952;32;20076;-73
2022/02/26 01:10:48;;;;;;;37.00;8.75;;;;;;;;;;4437861;32;19947;-73
2022/02/26 01:13:13;;;;;;;;;;;;;;;;;;4424142;32;20022;-73
2022/02/26 01:15:39;;;;;;;19.17;6.37;;;;;;;;;;4436433;32;19936;-73
2022/02/26 01:18:04;;;;;;;;;;;;;;;;;;4437490;32;20101;-74
2022/02/26 01:20:29;;;;;;;30.35;7.35;;;;;;;;;;4438057;32;19971;-73
2022/02/26 01:22:54;;;;;;;;;;;;;;;;;;4424372;32;20112;-73
2022/02/26 01:25:19;;;;;;;23.87;8.05;;;;;;;;;;4437667;32;19943;-74
2022/02/26 01:27:44;;;;;;;;;;;;;;;;;;4437344;32;20443;-74
2022/02/26 01:30:10;;;;;;;39.38;9.05;;;;;;;;;;4436982;32;19933;-74
2022/02/26 01:32:35;;;;;;;;;;;;;;;;;;4438300;32;20073;-73
2022/02/26 01:35:01;;;;;;;29.25;8.30;;;;;;;;;;4436155;32;19944;-73
2022/02/26 01:37:26;;;;;;;;;;;;;;;;;;4423468;32;20147;-73
2022/02/26 01:39:51;;;;;;;22.08;8.70;;;;;;;;;;4419513;27;20299;-71
2022/02/26 01:42:20;;;;;;;;;;;;;;;;;;4404467;32;20078;-72
2022/02/26 01:44:45;;;;;;;32.72;12.07;;;;;;;;;;4402691;32;19933;-71
2022/02/26 01:47:11;;;;;;;;;;;;;;;;;;4404610;32;20082;-71
2022/02/26 01:49:36;;;;;;;37.10;12.70;;;;;;;;;;4402094;32;19997;-72
2022/02/26 01:52:01;;;;;;;;;;;;;;;;;;4401649;32;20192;-72
2022/02/26 01:54:26;;;;;;;34.88;13.35;;;;;;;;;;4403647;32;19981;-72
2022/02/26 01:56:51;;;;;;;38.65;14.43;;;;;;;;;;4400083;32;20030;-72
2022/02/26 01:59:16;;;;;;;;;;;;;;;;;;4402153;32;20109;-72
2022/02/26 02:01:42;;;;;;;31.58;14.90;;;;;;;;;;4402372;32;19948;-72
2022/02/26 02:04:07;;;;;;;39.47;13.48;;;;;;;;;;4402691;32;20090;-71
2022/02/26 02:06:33;;;;;;;;;;;;;;;;;;4403505;32;20476;-72
2022/02/26 02:08:58;;;;;;;34.44;11.42;;;;;;;;;;4403824;32;19944;-73
2022/02/26 02:11:23;;;;;;;;;;;;;;;;;;4402008;32;20051;-73
2022/02/26 02:13:48;;;;;;;30.75;12.32;;;;;;;;;;4401800;32;19941;-73
2022/02/26 02:16:13;;;;;;;;;;;;;;;;;;4403547;32;20082;-73
2022/02/26 02:18:41;;;;;;;29.33;10.85;;;;;;;;;;4401927;32;19967;-72
2022/02/26 02:21:06;;;;;;;29.83;10.27;;;;;;;;;;4401284;32;20062;-72
2022/02/26 02:23:31;;;;;;;;;;;;;;;;;;4401757;32;20124;-72
2022/02/26 02:25:57;;;;;;;33.70;11.48;;;;;;;;;;4402156;32;20247;-72
2022/02/26 02:28:23;;;;;;;;;;;;;;;;;;4403200;32;20053;-72
2022/02/26 02:30:49;;;;;;;38.80;11.98;;;;;;;;;;4401953;32;19938;-72
2022/02/26 02:33:14;;;;;;;;;;;;;;;;;;4401299;32;20026;-72
2022/02/26 02:35:41;;;;;;;30.90;10.13;;;;;;;;;;4400540;32;19946;-72
2022/02/26 02:38:08;;;;;;;35.88;11.15;;;;;;;;;;4404897;32;20027;-72
2022/02/26 02:40:33;;;;;;;36.38;11.73;;;;;;;;;;4404388;32;20056;-72
2022/02/26 02:42:58;;;;;;;;;;;;;;;;;;4403167;32;20153;-73
2022/02/26 02:45:23;;;;;;;30.12;9.65;;;;;;;;;;4417933;32;19941;-72
2022/02/26 02:47:48;;;;;;;;;;;;;;;;;;4418885;32;20130;-72
2022/02/26 02:50:15;;;;;;;34.33;10.43;;;;;;;;;;4403694;32;19948;-73
2022/02/26 02:52:41;;;;;;;31.62;9.35;;;;;;;;;;4417859;32;20126;-73
2022/02/26 02:55:06;;;;;;;;;;;;;;;;;;4416153;32;20125;-72
2022/02/26 02:57:31;;;;;;;50.42;15.00;;;;;;;;;;4417448;32;19945;-72
2022/02/26 02:59:56;;;;;;;;;;;;;;;;;;4404084;32;20077;-72
2022/02/26 03:02:21;;;;;;;32.97;10.23;;;;;;;;;;4404080;32;20226;-72
2022/02/26 03:04:46;;;;;;;37.75;11.35;;;;;;;;;;4415780;32;20181;-72
2022/02/26 03:07:12;;;;;;;39.33;11.68;;;;;;;;;;4416456;32;20448;-73
2022/02/26 03:09:37;;;;;;;;;;;;;;;;;;4416826;32;20525;-73
2022/02/26 03:12:02;;;;;;;40.85;12.98;;;;;;;;;;4416172;32;20039;-73
2022/02/26 03:14:27;;;;;;;;;;;;;;;;;;4404337;32;20052;-73
2022/02/26 03:16:52;;;;;;;44.22;10.38;;;;;;;;;;4417324;32;19988;-72
2022/02/26 03:19:17;;;;;;;;;;;;;;;;;;4418817;32;20081;-73
2022/02/26 03:21:43;;;;;;;45.75;10.40;;;;;;;;;;4403013;32;19936;-73
2022/02/26 03:24:10;;;;;;;48.75;10.02;;;;;;;;;;4416876;32;20033;-73
2022/02/26 03:26:36;;;;;;;42.05;9.43;;;;;;;;;;4419464;32;20069;-71
2022/02/26 03:29:01;;;;;;;;;;;;;;;;;;4417983;32;20022;-72
2022/02/26 03:31:26;;;;;;;41.28;9.88;;;;;;;;;;4403819;32;20281;-72
2022/02/26 03:33:51;;;;;;;32.28;9.40;;;;;;;;;;4416650;32;20364;-72
2022/02/26 03:36:16;;;;;;;52.78;10.25;;;;;;;;;;4416433;32;20069;-72
2022/02/26 03:38:42;;;;;;;;;;;;;;;;;;4417273;32;20145;-72
2022/02/26 03:41:08;;;;;;;43.42;9.68;;;;;;;;;;4417967;32;20247;-72
2022/02/26 03:43:33;;;;;;;;;;;;;;;;;;4404264;32;20075;-72
2022/02/26 03:45:58;;;;;;;42.97;9.95;;;;;;;;;;4403762;32;19967;-72
2022/02/26 03:48:23;;;;;;;;;;;;;;;;;;4404074;32;20056;-72
2022/02/26 03:50:49;;;;;;;28.87;8.43;;;;;;;;;;4416246;32;19933;-72
2022/02/26 03:53:14;;;;;;;;;;;;;;;;;;4417659;32;20206;-72
2022/02/26 03:55:39;;;;;;;26.92;8.73;;;;;;;;;;4420812;32;20021;-72
2022/02/26 03:58:04;;;;;;;22.42;8.13;;;;;;;;;;4418618;32;20199;-72
2022/02/26 04:00:29;;;;;;;;;;;;;;;;;;4404902;32;20084;-72
2022/02/26 04:02:54;;;;;;;20.52;8.00;;;;;;;;;;4404662;32;19937;-72
2022/02/26 04:05:20;;;;;;;;;;;;;;;;;;4419622;32;20018;-72
2022/02/26 04:07:45;;;;;;;18.80;9.02;;;;;;;;;;4419435;32;19964;-72
2022/02/26 04:10:10;;;;;;;;;;;;;;;;;;4406557;32;20101;-72
2022/02/26 04:12:36;;;;;;;17.58;8.10;;;;;;;;;;4419762;32;19953;-72
2022/02/26 04:15:01;;;;;;;;;;;;;;;;;;4419427;32;20034;-72
2022/02/26 04:17:26;;;;;;;18.90;7.25;;;;;;;;;;4404999;32;19992;-72
2022/02/26 04:19:51;;;;;;;;;;;;;;;;;;4418318;32;20266;-72
2022/02/26 04:22:17;;;;;;;14.38;6.85;;;;;;;;;;4419846;32;19969;-72
2022/02/26 04:24:42;;;;;;;;;;;;;;;;;;4406484;32;20129;-72
2022/02/26 04:27:07;;;;;;;22.00;7.70;;;;;;;;;;4419224;32;20235;-72
2022/02/26 04:29:32;;;;;;;;;;;;;;;;;;4419870;32;20033;-72
2022/02/26 04:31:58;;;;;;;20.33;7.45;;;;;;;;;;4419670;32;19989;-72
2022/02/26 04:34:23;;;;;;;20.83;7.35;;;;;;;;;;4419159;32;20049;-72
2022/02/26 04:36:48;;;;;;;22.13;6.93;;;;;;;;;;4418443;32;20192;-72
2022/02/26 04:39:14;;;;;;;19.33;6.85;;;;;;;;;;4417618;32;20046;-72
2022/02/26 04:41:39;;;;;;;;;;;;;;;;;;4418815;32;20022;-72
2022/02/26 04:44:04;;;;;;;35.95;8.27;;;;;;;;;;4417117;32;20275;-72
2022/02/26 04:46:29;;;;;;;;;;;;;;;;;;4417871;32;20023;-72
2022/02/26 04:48:54;;;;;;;19.48;7.18;;;;;;;;;;4418845;32;20266;-72
2022/02/26 04:51:19;;;;;;;;;;;;;;;;;;4417659;32;20188;-72
2022/02/26 04:53:45;;;;;;;21.48;6.97;;;;;;;;;;4405517;32;19948;-72
2022/02/26 04:56:10;;;;;;;;;;;;;;;;;;4419640;32;20200;-73
2022/02/26 04:58:35;;;;;;;23.33;7.60;;;;;;;;;;4417719;32;19957;-72
2022/02/26 05:01:00;;;;;;;;;;;;;;;;;;4419233;32;20145;-72
2022/02/26 05:03:25;;;;;;;27.15;8.48;;;;;;;;;;4416923;32;20216;-72
2022/02/26 05:05:50;;;;;;;;;;;;;;;;;;4419068;32;20146;-72
2022/02/26 05:08:16;;;;;;;28.83;9.45;;;;;;;;;;4417390;32;19993;-72
2022/02/26 05:10:41;;;;;;;25.23;7.95;;;;;;;;;;4418606;32;20044;-72
2022/02/26 05:13:06;;;;;;;30.55;7.68;;;;;;;;;;4417603;32;20030;-72
2022/02/26 05:15:32;;;;;;;32.63;9.20;;;;;;;;;;4417873;32;20022;-72
2022/02/26 05:17:57;;;;;;;37.35;10.25;;;;;;;;;;4417409;32;20057;-71
2022/02/26 05:20:22;;;;;;;25.90;11.02;;;;;;;;;;4418221;32;20118;-72
2022/02/26 05:22:47;;;;;;;;;;;;;;;;;;4419312;32;20323;-71
2022/02/26 05:25:12;;;;;;;34.28;10.52;;;;;;;;;;4419071;32;19937;-72
2022/02/26 05:27:37;;;;;;;;;;;;;;;;;;4419536;32;20030;-72
2022/02/26 05:30:03;;;;;;;38.80;13.98;;;;;;;;;;4403459;32;19941;-72
2022/02/26 05:32:29;;;;;;;53.55;18.20;;;;;;;;;;4417345;32;20049;-72
2022/02/26 05:34:54;;;;;;;;;;;;;;;;;;4417806;32;20026;-72
2022/02/26 05:37:19;;;;;;;42.20;14.76;;;;;;;;;;4417398;32;20238;-72
2022/02/26 05:39:44;;;;;;;;;;;;;;;;;;4417496;32;20343;-72
2022/02/26 05:42:10;;;;;;;55.08;18.95;;;;;;;;;;4416702;32;19966;-72
2022/02/26 05:44:35;;;;;;;;;;;;;;;;;;4417083;32;20653;-72
2022/02/26 05:47:01;;;;;;;46.53;16.37;;;;;;;;;;4418200;32;19975;-72
2022/02/26 05:49:26;;;;;;;;;;;;;;;;;;4417649;32;20573;-72
2022/02/26 05:51:51;;;;;;;47.72;18.85;;;;;;;;;;4417067;32;19993;-71
2022/02/26 05:54:16;;;;;;;84.70;23.40;;;;;;;;;;4417698;32;20090;-72
2022/02/26 05:56:42;;;;;;;;;;;;;;;;;;4418654;32;20086;-72
2022/02/26 05:59:07;;;;;;;60.95;22.25;;;;;;;;;;4416583;32;19967;-72
2022/02/26 06:01:32;;;;;;;96.63;20.75;;;;;;;;;;4417451;32;20298;-72
2022/02/26 06:03:57;;;;;;;;;;;;;;;;;;4402999;32;20034;-72
2022/02/26 06:06:23;;;;;;;70.45;18.33;;;;;;;;;;4417081;32;19936;-72
2022/02/26 06:08:48;;;;;;;61.30;20.33;;;;;;;;;;4418370;32;20026;-72
2022/02/26 06:11:13;;;;;;;;;;;;;;;;;;4418251;32;20339;-73
2022/02/26 06:13:38;;;;;;;72.50;21.25;;;;;;;;;;4402689;32;20081;-72
2022/02/26 06:16:04;;;;;;;75.20;21.27;;;;;;;;;;4417793;32;20057;-72
2022/02/26 06:18:29;;;;;;;71.32;23.60;;;;;;;;;;4418567;32;20030;-72
2022/02/26 06:20:54;;;;;;;;;;;;;;;;;;4417596;32;20030;-73
2022/02/26 06:23:19;;;;;;;67.37;23.95;;;;;;;;;;4418509;32;19967;-72
2022/02/26 06:25:44;;;;;;;;;;;;;;;;;;4403131;32;20150;-73
2022/02/26 06:28:13;;;;;;;79.65;19.42;;;;;;;;;;4416551;32;20260;-73
2022/02/26 06:30:38;;;;;;;63.35;23.02;;;;;;;;;;4418246;32;20056;-72
2022/02/26 06:33:04;;;;;;;;;;;;;;;;;;4417032;32;20090;-72
2022/02/26 06:35:29;;;;;;;95.53;24.85;;;;;;;;;;4417222;32;19941;-72
2022/02/26 06:37:54;;;;;;;;;;;;;;;;;;4417004;32;20206;-72
2022/02/26 06:40:20;;;;;;;84.80;24.80;;;;;;;;;;4417509;32;19937;-71
2022/02/26 06:42:45;;;;;;;68.25;26.52;;;;;;;;;;4402005;32;20083;-71
2022/02/26 06:45:10;;;;;;;;;;;;;;;;;;4414261;32;20052;-72
2022/02/26 06:47:35;;;;;;;65.03;24.05;;;;;;;;;;4439479;32;19976;-72
2022/02/26 06:50:01;;;;;;;46.78;22.73;;;;;;;;;;4425655;32;20041;-73
2022/02/26 06:52:28;;;;;;;;;;;;;;;;;;4440634;32;20143;-71
2022/02/26 06:54:53;;;;;;;88.80;23.70;;;;;;;;;;4448339;32;19948;-73
2022/02/26 06:57:18;;;;;;;;;;;;;;;;;;4432649;32;20068;-73
2022/02/26 06:59:43;;;;;;;116.50;29.45;;;;;;;;;;4433949;32;19933;-72
2022/02/26 07:02:08;;;;;;;;;;;;;;;;;;4433980;32;20502;-71
2022/02/26 07:04:34;;;;;;;75.87;25.37;;;;;;;;;;4432522;32;19933;-72
2022/02/26 07:06:59;;;;;;;;;;;;;;;;;;4431607;32;20196;-73
2022/02/26 07:09:24;;;;;;;85.90;31.33;;;;;;;;;;4431938;32;20070;-71
2022/02/26 07:11:49;;;;;;;;;;;;;;;;;;4430318;32;20150;-70
2022/02/26 07:14:15;;;;;;;61.60;27.28;;;;;;;;;;4436934;32;20044;-71
2022/02/26 07:16:41;;;;;;;52.17;27.37;;;;;;;;;;4433696;32;20142;-70
2022/02/26 07:19:06;;;;;;;;;;;;;;;;;;4431948;32;20084;-71
2022/02/26 07:21:31;;;;;;;68.07;28.30;;;;;;;;;;4433033;32;19947;-72
2022/02/26 07:23:58;;;;;;;68.55;33.22;;;;;;;;;;4431995;32;20022;-72
2022/02/26 07:26:23;;;;;;;74.20;34.17;;;;;;;;;;4431678;32;20022;-72
2022/02/26 07:28:48;;;;;;;;;;;;;;;;;;4436353;32;20046;-72
2022/02/26 07:31:14;;;;;;;101.53;38.33;;;;;;;;;;4434632;32;19967;-72
2022/02/26 07:33:39;;;;;;;;;;;;;;;;;;4436360;32;20125;-71
2022/02/26 07:36:04;;;;;;;110.97;42.20;;;;;;;;;;4420566;32;19967;-71
2022/02/26 07:38:29;;;;;;;;;;;;;;;;;;4437371;32;20307;-70
2022/02/26 07:40:54;;;;;;;103.60;41.03;;;;;;;;;;4437202;32;19967;-71
2022/02/26 07:43:20;;;;;;;102.07;39.90;;;;;;;;;;4436682;32;20134;-71
2022/02/26 07:45:45;;;;;;;;;;;;;;;;;;4434848;32;20049;-71
2022/02/26 07:48:10;;;;;;;107.45;48.05;;;;;;;;;;4433423;32;19941;-71
2022/02/26 07:50:35;;;;;;;;;;;;;;;;;;4434286;32;20259;-71
2022/02/26 07:53:00;;;;;;;78.50;39.33;;;;;;;;;;4436205;32;19944;-70
2022/02/26 07:55:25;;;;;;;;;;;;;;;;;;4434335;32;20229;-70
2022/02/26 07:57:51;;;;;;;88.95;42.38;;;;;;;;;;4433787;32;19973;-70
2022/02/26 08:00:16;;;;;;;;;;;;;;;;;;4420309;32;20582;-70
2022/02/26 08:02:42;;;;;;;84.68;40.95;;;;;;;;;;4433896;32;19947;-70
2022/02/26 08:05:08;;;;;;;60.33;35.70;;;;;;;;;;4434513;32;20156;-70
2022/02/26 08:07:33;;;;;;;;;;;;;;;;;;4433266;32;20038;-71
2022/02/26 08:09:58;;;;;;;75.22;40.90;;;;;;;;;;4413481;32;19937;-69
2022/02/26 08:12:23;;;;;;;90.53;42.92;;;;;;;;;;4420503;32;20208;-70
2022/02/26 08:14:48;;;;;;;;;;;;;;;;;;4418924;32;20086;-70
2022/02/26 08:17:14;;;;;;;137.95;48.33;;;;;;;;;;4419235;32;19937;-70
2022/02/26 08:19:39;;;;;;;;;;;;;;;;;;4418740;32;20025;-70
2022/02/26 08:22:04;;;;;;;78.95;44.47;;;;;;;;;;4418530;32;20318;-71
2022/02/26 08:24:31;;;;;;;;;;;;;;;;;;4420995;32;20034;-70
2022/02/26 08:26:56;;;;;;;71.70;43.72;;;;;;;;;;4418441;32;19961;-70
2022/02/26 08:29:21;;;;;;;;;;;;;;;;;;4420082;32;20390;-70
2022/02/26 08:31:46;;;;;;;62.64;40.22;;;;;;;;;;4406043;32;19963;-70
2022/02/26 08:34:11;;;;;;;;;;;;;;;;;;4420482;32;20026;-71
2022/02/26 08:36:36;;;;;;;63.78;42.35;;;;;;;;;;4419962;32;19968;-71
2022/02/26 08:39:02;;;;;;;;;;;;;;;;;;4418456;32;20133;-69
2022/02/26 08:41:27;;;;;;;66.78;41.80;;;;;;;;;;4418366;32;19975;-70
2022/02/26 08:43:52;;;;;;;;;;;;;;;;;;4418294;32;20018;-70
2022/02/26 08:46:17;;;;;;;61.63;43.78;;;;;;;;;;4418046;32;19934;-70
2022/02/26 08:48:42;;;;;;;;;;;;;;;;;;4418703;32;20388;-70
2022/02/26 08:51:08;;;;;;;68.15;44.15;;;;;;;;;;4419060;32;19948;-70
2022/02/26 08:53:33;;;;;;;65.45;43.85;;;;;;;;;;4418047;32;20077;-69
2022/02/26 08:55:58;;;;;;;;;;;;;;;;;;4417817;32;20449;-70
2022/02/26 08:58:23;;;;;;;67.50;46.00;;;;;;;;;;4418841;32;20298;-70
2022/02/26 09:00:49;;;;;;;;;;;;;;;;;;4419253;32;20052;-70
2022/02/26 09:03:14;;;;;;;66.95;45.67;;;;;;;;;;4405122;32;19944;-70
2022/02/26 09:05:40;;;;;;;;;;;;;;;;;;4419743;32;20371;-70
2022/02/26 09:08:05;;;;;;;73.80;48.84;;;;;;;;;;4404102;32;19964;-71
2022/02/26 09:10:30;;;;;;;;;;;;;;;;;;4419867;32;20052;-70
2022/02/26 09:12:55;;;;;;;77.12;49.30;;;;;;;;;;4424859;32;19969;-70
2022/02/26 09:15:20;;;;;;;;;;;;;;;;;;4441786;32;20085;-70
2022/02/26 09:17:46;;;;;;;74.97;46.67;;;;;;;;;;4447824;32;19937;-71
2022/02/26 09:20:12;;;;;;;;;;;;;;;;;;4448570;32;20033;-70
2022/02/26 09:22:37;;;;;;;66.95;41.78;;;;;;;;;;4448397;32;20294;-70
2022/02/26 09:25:03;;;;;;;;;;;;;;;;;;4449629;32;20033;-70
2022/02/26 09:27:28;;;;;;;67.95;41.85;;;;;;;;;;4426823;32;19937;-70
2022/02/26 09:29:53;;;;;;;;;;;;;;;;;;4433004;32;20117;-70
2022/02/26 09:32:18;;;;;;;65.93;40.45;;;;;;;;;;4432853;32;20290;-70
2022/02/26 09:34:43;;;;;;;;;;;;;;;;;;4434606;32;20053;-71
2022/02/26 09:37:08;;;;;;;65.28;38.72;;;;;;;;;;4434791;32;19960;-70
2022/02/26 09:39:34;;;;;;;;;;;;;;;;;;4433451;32;20445;-71
2022/02/26 09:41:59;;;;;;;56.10;33.75;;;;;;;;;;4433452;32;19941;-72
2022/02/26 09:44:24;;;;;;;;;;;;;;;;;;4434158;32;20187;-70
2022/02/26 09:46:50;;;;;;;47.36;30.34;;;;;;;;;;4436497;32;19933;-70
2022/02/26 09:49:15;;;;;;;;;;;;;;;;;;4447144;32;20026;-69
2022/02/26 09:51:41;;;;;;;44.12;21.56;;;;;;;;;;4455093;32;19942;-70
2022/02/26 09:54:07;;;;;;;54.85;22.37;;;;;;;;;;4448791;32;20136;-70
2022/02/26 09:56:32;;;;;;;;;;;;;;;;;;4448731;32;20085;-70
2022/02/26 09:58:57;;;;;;;31.80;19.30;;;;;;;;;;4447067;32;19936;-70
2022/02/26 10:01:22;;;;;;;;;;;;;;;;;;4447941;32;20017;-70
2022/02/26 10:03:47;;;;;;;37.15;18.62;;;;;;;;;;4446872;32;19949;-70
2022/02/26 10:06:12;;;;;;;;;;;;;;;;;;4424429;32;20121;-72
2022/02/26 10:08:39;;;;;;;29.30;15.52;;;;;;;;;;4434351;32;20027;-71
2022/02/26 10:11:06;;;;;;;30.37;15.10;;;;;;;;;;4432039;32;20184;-71
2022/02/26 10:13:35;;;;;;;33.00;12.75;;;;;;;;;;4433889;32;20423;-71
2022/02/26 10:16:00;;;;;;;23.58;12.40;;;;;;;;;;4434036;32;20033;-71
2022/02/26 10:18:25;;;;;;;;;;;;;;;;;;4432843;32;20429;-71
2022/02/26 10:20:59;;;;;;;24.00;11.50;;;;;;;;;;4432887;32;20006;-71
2022/02/26 10:23:25;;;;;;;30.23;11.95;;;;;;;;;;4418725;32;20147;-70
2022/02/26 10:25:50;;;;;;;;;;;;;;;;;;4432785;32;20022;-69
2022/02/26 10:28:15;;;;;;;23.77;10.38;;;;;;;;;;4433547;32;19978;-70
2022/02/26 10:30:40;;;;;;;;;;;;;;;;;;4432821;32;20117;-70
2022/02/26 10:33:13;;;;;;;21.65;8.85;;;;;;;;;;4432661;32;19955;-70
2022/02/26 10:35:38;;;;;;;19.17;9.07;;;;;;;;;;4433470;32;20342;-70
2022/02/26 10:38:03;;;;;;;;;;;;;;;;;;4431127;32;20205;-70
2022/02/26 10:40:45;;;;;;;23.80;6.45;;;;;;;;;;4432335;32;20023;-70
2022/02/26 10:43:10;;;;;;;23.42;6.45;;;;;;;;;;4432894;32;20029;-70
2022/02/26 10:45:35;;;;;;;;;;;;;;;;;;4418546;32;20463;-71
2022/02/26 10:48:00;;;;;;;17.15;5.68;;;;;;;;;;4433500;32;19932;-71
2022/02/26 10:50:25;;;;;;;;;;;;;;;;;;4440549;32;20117;-71
2022/02/26 10:52:56;;;;;;;20.20;5.20;;;;;;;;;;4445747;32;20261;-72
2022/02/26 10:55:22;;;;;;;21.10;5.45;;;;;;;;;;4447185;32;20502;-71
2022/02/26 10:57:47;;;;;;;;;;;;;;;;;;4447318;32;20025;-71
2022/02/26 11:00:13;;;;;;;26.00;5.40;;;;;;;;;;4434500;32;19968;-70
2022/02/26 11:02:38;;;;;;;;;;;;;;;;;;4436482;32;20038;-71
2022/02/26 11:05:03;;;;;;;21.85;5.80;;;;;;;;;;4452423;32;20305;-70
2022/02/26 11:07:28;;;;;;;;;;;;;;;;;;4451508;32;20155;-71
2022/02/26 11:09:53;;;;;;;18.85;6.68;;;;;;;;;;4450691;32;20275;-71
2022/02/26 11:12:18;;;;;;;;;;;;;;;;;;4450912;32;20033;-70
2022/02/26 11:14:51;;;;;;;20.52;4.12;;;;;;;;;;4450751;32;19967;-71
2022/02/26 11:17:17;;;;;;;54.83;6.55;;;;;;;;;;4452239;32;20084;-70
2022/02/26 11:19:42;;;;;;;;;;;;;;;;;;4452407;32;20288;-71
2022/02/26 11:22:07;;;;;;;16.23;3.80;;;;;;;;;;4451419;32;19964;-71
2022/02/26 11:24:32;;;;;;;;;;;;;;;;;;4450650;32;20080;-71
2022/02/26 11:26:58;;;;;;;22.15;5.32;;;;;;;;;;4450836;32;19968;-71
2022/02/26 11:29:23;;;;;;;;;;;;;;;;;;4430225;32;20204;-71
2022/02/26 11:31:57;;;;;;;19.10;4.70;;;;;;;;;;4436186;32;20274;-71
2022/02/26 11:34:24;;;;;;;13.00;4.22;;;;;;;;;;4452227;32;20417;-71
2022/02/26 11:36:53;;;;;;;14.45;3.60;;;;;;;;;;4450286;32;20025;-70
2022/02/26 11:39:27;;;;;;;22.80;4.18;;;;;;;;;;4450829;32;20063;-70
2022/02/26 11:42:11;;;;;;;15.25;4.75;;;;;;;;;;4448271;32;20017;-70
2022/02/26 11:44:37;;;;;;;27.37;5.80;;;;;;;;;;4449646;32;20089;-69
2022/02/26 11:47:02;;;;;;;;;;;;;;;;;;4450773;32;20110;-68
2022/02/26 11:49:27;;;;;;;22.10;5.20;;;;;;;;;;4436515;32;20041;-69
2022/02/26 11:51:52;;;;;;;21.85;5.12;;;;;;;;;;4449726;32;20473;-69
2022/02/26 11:54:17;;;;;;;;;;;;;;;;;;4435759;32;20154;-68
2022/02/26 11:56:49;;;;;;;20.52;6.60;;;;;;;;;;4450694;32;19972;-69
2022/02/26 11:59:15;;;;;;;13.68;5.60;;;;;;;;;;4451834;32;20052;-69
2022/02/26 12:01:58;;;;;;;28.87;6.57;;;;;;;;;;4451295;32;20371;-69
2022/02/26 12:04:24;;;;;;;19.15;5.80;;;;;;;;;;4449577;32;20029;-69
2022/02/26 12:06:54;;;;;;;17.25;6.50;;;;;;;;;;4450692;32;20113;-69
2022/02/26 12:09:19;;;;;;;18.67;6.40;;;;;;;;;;4446692;32;20135;-70
2022/02/26 12:11:44;;;;;;;;;;;;;;;;;;4434987;32;20391;-68
2022/02/26 12:14:20;;;;;;;17.35;6.30;;;;;;;;;;4449818;32;20042;-69
2022/02/26 12:17:08;;;;;;;21.95;7.22;;;;;;;;;;4449796;32;20116;-69
2022/02/26 12:19:42;;;;;;;23.25;6.22;;;;;;;;;;4436043;32;20075;-70
2022/02/26 12:22:07;;;;;;;22.90;5.22;;;;;;;;;;4450161;32;20081;-69
2022/02/26 12:24:33;;;;;;;;;;;;;;;;;;4437421;32;20041;-69
2022/02/26 12:26:58;;;;;;;29.45;6.18;;;;;;;;;;4450982;32;19980;-69
2022/02/26 12:29:23;;;;;;;;;;;;;;;;;;4449491;32;20114;-68
2022/02/26 12:32:04;;;;;;;15.35;6.05;;;;;;;;;;4449913;32;19939;-69
2022/02/26 12:34:31;;;;;;;26.95;7.28;;;;;;;;;;4442622;32;20021;-70
2022/02/26 12:37:05;;;;;;;24.12;6.95;;;;;;;;;;4438898;32;20210;-69
2022/02/26 12:39:30;;;;;;;23.62;6.65;;;;;;;;;;4448210;32;20198;-71
2022/02/26 12:41:56;;;;;;;22.62;6.20;;;;;;;;;;4449469;32;20430;-69
2022/02/26 12:44:21;;;;;;;;;;;;;;;;;;4450523;32;20129;-69
2022/02/26 12:46:46;;;;;;;28.60;7.43;;;;;;;;;;4449324;32;19986;-68
2022/02/26 12:49:13;;;;;;;24.87;7.53;;;;;;;;;;4448517;32;20082;-70
2022/02/26 12:51:41;;;;;;;21.27;6.87;;;;;;;;;;4450069;32;20422;-68
2022/02/26 12:54:08;;;;;;;25.12;7.80;;;;;;;;;;4435203;32;20218;-69
2022/02/26 12:56:35;;;;;;;27.37;8.07;;;;;;;;;;4449375;32;20029;-69
2022/02/26 12:59:07;;;;;;;20.42;6.65;;;;;;;;;;4434631;32;20037;-69
2022/02/26 13:01:35;;;;;;;24.63;7.00;;;;;;;;;;4433723;32;20092;-69
2022/02/26 13:04:03;;;;;;;34.95;9.20;;;;;;;;;;4449264;32;20022;-70
2022/02/26 13:06:28;;;;;;;19.95;7.05;;;;;;;;;;4447517;32;20088;-69
2022/02/26 13:08:53;;;;;;;;;;;;;;;;;;4449006;32;20393;-69
2022/02/26 13:11:20;;;;;;;23.65;6.35;;;;;;;;;;4449530;32;19944;-69
2022/02/26 13:13:45;;;;;;;22.02;5.86;;;;;;;;;;4449576;32;20226;-69
2022/02/26 13:16:11;;;;;;;;;;;;;;;;;;4451566;32;20132;-68
2022/02/26 13:18:36;;;;;;;17.42;6.32;;;;;;;;;;4448113;32;20037;-69
2022/02/26 13:21:01;;;;;;;12.88;5.35;;;;;;;;;;4434226;32;20021;-70
2022/02/26 13:23:29;;;;;;;19.50;5.80;;;;;;;;;;4435211;32;20182;-69
2022/02/26 13:25:55;;;;;;;18.10;5.18;;;;;;;;;;4444496;32;20064;-69
2022/02/26 13:28:21;;;;;;;;;;;;;;;;;;4435823;32;20030;-69
2022/02/26 13:30:48;;;;;;;23.27;5.62;;;;;;;;;;4448317;32;19972;-69
2022/02/26 13:33:13;;;;;;;20.77;6.22;;;;;;;;;;4447762;32;20048;-69
2022/02/26 13:35:38;;;;;;;;;;;;;;;;;;4448556;32;20018;-69
2022/02/26 13:38:04;;;;;;;22.42;8.10;;;;;;;;;;4448854;32;20316;-69
2022/02/26 13:40:29;;;;;;;20.52;6.12;;;;;;;;;;4448333;32;20029;-69
2022/02/26 13:42:55;;;;;;;;;;;;;;;;;;4449941;32;20101;-69
2022/02/26 13:45:20;;;;;;;20.52;5.68;;;;;;;;;;4448779;32;19945;-69
2022/02/26 13:47:47;;;;;;;;;;;;;;;;;;4447822;32;20043;-69
2022/02/26 13:50:13;;;;;;;20.23;5.78;;;;;;;;;;4448050;32;19966;-69
2022/02/26 13:52:38;;;;;;;;;;;;;;;;;;4450039;32;20033;-71
2022/02/26 13:55:05;;;;;;;17.95;5.40;;;;;;;;;;4448385;32;19971;-69
2022/02/26 13:57:34;;;;;;;15.88;5.65;;;;;;;;;;4447510;32;20124;-70
2022/02/26 14:00:07;;;;;;;13.60;5.00;;;;;;;;;;4449187;32;20078;-70
2022/02/26 14:02:32;;;;;;;17.60;5.18;;;;;;;;;;4447891;32;20106;-70
2022/02/26 14:04:58;;;;;;;;;;;;;;;;;;4448902;32;20026;-69
2022/02/26 14:07:36;;;;;;;19.40;5.40;;;;;;;;;;4448557;32;19952;-69
2022/02/26 14:10:03;;;;;;;19.77;4.40;;;;;;;;;;4448867;32;20029;-70
2022/02/26 14:12:29;;;;;;;17.05;4.82;;;;;;;;;;4434641;32;20045;-69
2022/02/26 14:14:54;;;;;;;;;;;;;;;;;;4447615;32;20063;-70
2022/02/26 14:17:19;;;;;;;30.45;6.32;;;;;;;;;;4449332;32;19932;-70
2022/02/26 14:19:46;;;;;;;19.67;6.72;;;;;;;;;;4448236;32;20055;-69
2022/02/26 14:22:12;;;;;;;24.58;5.55;;;;;;;;;;4448643;32;20029;-70
2022/02/26 14:24:45;;;;;;;18.12;4.78;;;;;;;;;;4434961;32;20066;-68
2022/02/26 14:27:15;;;;;;;17.52;4.75;;;;;;;;;;4432701;32;20029;-69
2022/02/26 14:29:41;;;;;;;18.92;4.87;;;;;;;;;;4448483;32;20072;-69
2022/02/26 14:32:06;;;;;;;;;;;;;;;;;;4434014;32;20052;-69
2022/02/26 14:34:32;;;;;;;16.48;5.10;;;;;;;;;;4434906;32;19951;-69
2022/02/26 14:36:58;;;;;;;18.75;5.28;;;;;;;;;;4449331;32;20124;-69
2022/02/26 14:39:24;;;;;;;;;;;;;;;;;;4448102;32;20071;-70
2022/02/26 14:41:50;;;;;;;19.98;6.25;;;;;;;;;;4449308;32;19932;-70
2022/02/26 14:44:15;;;;;;;12.37;5.50;;;;;;;;;;4448042;32;20080;-69
2022/02/26 14:46:40;;;;;;;;;;;;;;;;;;4447663;32;20025;-70
2022/02/26 14:49:05;;;;;;;17.98;5.82;;;;;;;;;;4447432;32;19947;-70
2022/02/26 14:51:31;;;;;;;13.62;5.35;;;;;;;;;;4448765;32;20077;-69
2022/02/26 14:53:56;;;;;;;18.23;6.32;;;;;;;;;;4432665;32;20095;-70
2022/02/26 14:56:21;;;;;;;17.02;6.65;;;;;;;;;;4448419;32;20300;-69
2022/02/26 14:58:46;;;;;;;;;;;;;;;;;;4448674;32;20064;-69
2022/02/26 15:01:12;;;;;;;19.33;7.28;;;;;;;;;;4449008;32;19941;-69
2022/02/26 15:03:37;;;;;;;23.85;8.55;;;;;;;;;;4449370;32;20331;-69
2022/02/26 15:06:02;;;;;;;;;;;;;;;;;;4434576;32;20029;-69